createdAt,value
2022-11-25T00:48:27.419Z,11.70
2022-11-25T00:50:55.699Z,10.68
2022-11-25T00:53:25.187Z,10.48
2022-11-25T00:56:22.597Z,10.52
2022-11-25T00:58:51.126Z,10.88
2022-11-25T01:46:52.797Z,9.65
2022-11-25T01:49:27.007Z,9.60
2022-11-25T01:52:00.890Z,9.60
2022-11-25T01:54:36.274Z,9.27
2022-11-25T01:57:12.435Z,9.43
2022-11-25T01:59:47.377Z,9.40
2022-11-25T02:46:15.064Z,8.30
2022-11-25T02:49:18.860Z,8.18
2022-11-25T02:51:38.345Z,8.07
2022-11-25T02:54:09.727Z,8.60
2022-11-25T02:56:38.890Z,7.40
2022-11-25T02:59:07.512Z,8.23
2022-11-25T03:45:58.527Z,7.70
2022-11-25T03:48:29.734Z,7.55
2022-11-25T03:50:58.160Z,7.05
2022-11-25T03:53:29.105Z,6.97
2022-11-25T03:56:00.851Z,7.30
2022-11-25T03:58:29.341Z,7.70
2022-11-25T04:47:59.143Z,6.32
2022-11-25T04:50:27.764Z,6.70
2022-11-25T04:53:03.789Z,6.40
2022-11-25T04:55:33.589Z,6.97
2022-11-25T04:58:05.949Z,6.50
2022-11-25T05:33:18.982Z,5.93
2022-11-25T05:35:56.520Z,6.20
2022-11-25T05:38:28.674Z,6.50
2022-11-25T05:41:07.646Z,6.85
2022-11-25T05:43:38.406Z,6.35
2022-11-25T05:46:08.915Z,5.93
2022-11-25T05:48:42.058Z,6.55
2022-11-25T05:51:10.801Z,5.80
2022-11-25T05:53:40.319Z,6.13
2022-11-25T05:56:10.988Z,5.88
2022-11-25T05:58:59.538Z,5.70
2022-11-25T06:01:35.949Z,6.15
2022-11-25T06:04:06.928Z,5.70
2022-11-25T06:06:36.209Z,6.40
2022-11-25T06:09:05.261Z,5.88
2022-11-25T06:11:36.775Z,5.95
2022-11-25T06:14:05.183Z,6.40
2022-11-25T06:16:34.006Z,5.57
2022-11-25T06:19:22.205Z,5.78
2022-11-25T06:21:50.716Z,6.30
2022-11-25T06:24:19.429Z,5.70
2022-11-25T06:26:52.098Z,5.82
2022-11-25T06:29:22.627Z,5.63
2022-11-25T06:31:52.471Z,5.85
2022-11-25T06:34:42.770Z,6.95
2022-11-25T06:37:26.421Z,6.53
2022-11-25T06:39:54.715Z,7.57
2022-11-25T06:42:23.034Z,7.40
2022-11-25T06:44:51.404Z,7.80
2022-11-25T06:47:19.672Z,7.68
2022-11-25T06:49:49.816Z,7.18
2022-11-25T06:52:18.091Z,8.40
2022-11-25T06:54:46.375Z,7.50
2022-11-25T06:57:20.102Z,8.00
2022-11-25T06:59:48.349Z,7.07
2022-11-25T07:02:16.833Z,7.25
2022-11-25T07:04:45.683Z,7.05
2022-11-25T07:07:15.394Z,6.65
2022-11-25T07:09:43.891Z,6.50
2022-11-25T07:12:13.108Z,6.85
2022-11-25T07:14:41.319Z,6.25
2022-11-25T07:17:12.156Z,6.47
2022-11-25T07:19:40.804Z,6.35
2022-11-25T07:22:09.170Z,6.38
2022-11-25T07:24:38.949Z,5.88
2022-11-25T07:27:08.145Z,5.75
2022-11-25T07:29:57.976Z,5.97
2022-11-25T07:32:24.985Z,5.93
2022-11-25T07:34:53.307Z,6.13
2022-11-25T07:37:21.707Z,5.55
2022-11-25T07:39:51.367Z,6.25
2022-11-25T07:42:19.626Z,6.00
2022-11-25T07:44:47.994Z,6.30
2022-11-25T07:47:39.016Z,5.85
2022-11-25T07:50:09.518Z,5.90
2022-11-25T07:52:40.628Z,5.97
2022-11-25T07:55:10.953Z,5.47
2022-11-25T07:57:39.253Z,5.82
2022-11-25T08:00:09.641Z,6.25
2022-11-25T08:02:40.912Z,6.15
2022-11-25T08:05:10.797Z,5.95
2022-11-25T08:07:39.482Z,6.32
2022-11-25T08:10:12.005Z,6.20
2022-11-25T08:12:40.329Z,6.07
2022-11-25T08:15:10.042Z,5.55
2022-11-25T08:17:38.347Z,5.82
2022-11-25T08:20:08.802Z,5.93
2022-11-25T08:22:37.189Z,5.53
2022-11-25T08:25:06.280Z,5.40
2022-11-25T08:27:36.111Z,5.97
2022-11-25T08:30:05.002Z,5.57
2022-11-25T08:32:33.333Z,5.88
2022-11-25T08:35:01.797Z,5.88
2022-11-25T08:37:32.397Z,5.75
2022-11-25T08:40:01.357Z,6.18
2022-11-25T08:42:29.830Z,5.03
2022-11-25T08:44:59.824Z,5.43
2022-11-25T08:47:29.216Z,5.55
2022-11-25T08:49:57.869Z,5.65
2022-11-25T08:52:26.675Z,4.97
2022-11-25T08:54:54.989Z,5.20
2022-11-25T08:57:23.464Z,5.88
2022-11-25T08:59:51.707Z,5.38
2022-11-25T09:02:21.460Z,5.38
2022-11-25T09:04:49.735Z,4.82
2022-11-25T09:07:18.155Z,5.22
2022-11-25T09:09:46.830Z,5.38
2022-11-25T09:12:15.253Z,5.68
2022-11-25T09:14:43.568Z,5.47
2022-11-25T09:17:12.615Z,5.45
2022-11-25T09:19:42.307Z,5.50
2022-11-25T09:22:12.774Z,4.72
2022-11-25T09:24:41.698Z,4.82
2022-11-25T09:27:10.021Z,4.80
2022-11-25T09:29:38.691Z,4.75
2022-11-25T09:32:07.332Z,4.93
2022-11-25T09:34:35.835Z,5.05
2022-11-25T09:37:05.996Z,5.07
2022-11-25T09:39:35.613Z,4.65
2022-11-25T09:42:38.374Z,5.00
2022-11-25T09:45:35.775Z,4.28
2022-11-25T09:48:31.630Z,4.40
2022-11-25T09:51:08.668Z,4.60
2022-11-25T09:53:45.232Z,4.47
2022-11-25T09:56:25.259Z,4.53
2022-11-25T09:59:00.621Z,4.22
2022-11-25T10:01:32.141Z,4.57
2022-11-25T10:04:05.518Z,4.50
2022-11-25T10:06:44.558Z,4.78
2022-11-25T10:09:18.915Z,4.40
2022-11-25T10:11:53.347Z,4.70
2022-11-25T10:14:31.024Z,4.40
2022-11-25T10:17:08.614Z,4.22
2022-11-25T10:19:53.235Z,4.28
2022-11-25T10:22:26.340Z,4.40
2022-11-25T10:25:00.327Z,4.03
2022-11-25T10:27:47.440Z,4.20
2022-11-25T10:30:21.029Z,4.07
2022-11-25T10:33:00.794Z,4.10
2022-11-25T10:35:36.654Z,3.90
2022-11-25T10:38:17.356Z,4.03
2022-11-25T10:40:51.684Z,4.20
2022-11-25T10:43:20.211Z,3.97
2022-11-25T10:45:56.529Z,3.95
2022-11-25T10:48:47.376Z,4.05
2022-11-25T10:51:34.055Z,4.40
2022-11-25T10:54:15.000Z,4.18
2022-11-25T10:56:52.441Z,3.80
2022-11-25T10:59:30.619Z,4.13
2022-11-25T11:02:20.457Z,4.35
2022-11-25T11:04:59.620Z,3.65
2022-11-25T11:07:33.054Z,4.03
2022-11-25T11:10:28.006Z,3.60
2022-11-25T11:13:00.522Z,3.92
2022-11-25T11:15:31.591Z,4.03
2022-11-25T11:18:14.505Z,4.03
2022-11-25T11:20:48.219Z,3.80
2022-11-25T11:23:17.862Z,3.78
2022-11-25T11:25:58.753Z,3.45
2022-11-25T11:28:39.073Z,4.22
2022-11-25T11:31:18.955Z,3.88
2022-11-25T11:33:58.916Z,3.97
2022-11-25T11:36:47.386Z,3.53
2022-11-25T11:39:48.862Z,4.05
2022-11-25T11:42:29.219Z,3.85
2022-11-25T11:45:14.360Z,3.65
2022-11-25T11:48:08.640Z,3.80
2022-11-25T11:50:42.127Z,4.00
2022-11-25T11:53:23.092Z,3.53
2022-11-25T11:56:33.656Z,3.85
2022-11-25T11:59:10.182Z,3.58
2022-11-25T12:01:53.987Z,3.90
2022-11-25T12:04:28.143Z,3.72
2022-11-25T12:07:04.787Z,3.38
2022-11-25T12:09:38.287Z,3.53
2022-11-25T12:12:14.152Z,4.03
2022-11-25T12:14:47.469Z,3.60
2022-11-25T12:17:21.825Z,3.58
2022-11-25T12:19:58.113Z,3.67
2022-11-25T12:22:32.006Z,3.83
2022-11-25T12:25:08.950Z,3.15
2022-11-25T12:27:41.843Z,3.10
2022-11-25T12:30:16.103Z,3.20
2022-11-25T12:32:59.876Z,3.70
2022-11-25T12:35:44.157Z,3.67
2022-11-25T12:38:27.038Z,3.58
2022-11-25T12:41:03.370Z,3.58
2022-11-25T12:43:42.396Z,4.28
2022-11-25T12:46:25.436Z,4.68
2022-11-25T12:48:57.986Z,21.27
2022-11-25T12:52:13.094Z,42.47
2022-11-25T12:54:59.498Z,37.10
2022-11-25T12:57:58.827Z,53.78
2022-11-25T13:00:42.100Z,82.47
2022-11-25T13:03:47.110Z,60.25
2022-11-25T13:06:52.222Z,78.80
2022-11-25T13:09:44.590Z,39.08
2022-11-25T13:12:29.585Z,33.83
2022-11-25T13:15:28.923Z,31.67
2022-11-25T13:18:01.074Z,30.40
2022-11-25T13:20:46.874Z,31.88
2022-11-25T13:23:31.445Z,29.35
2022-11-25T13:26:47.966Z,28.05
2022-11-25T13:30:02.599Z,25.50
2022-11-25T13:32:48.829Z,23.60
2022-11-25T13:35:39.834Z,23.25
2022-11-25T13:38:31.798Z,23.45
2022-11-25T13:41:03.431Z,22.98
2022-11-25T13:43:31.824Z,21.40
2022-11-25T13:46:00.410Z,21.83
2022-11-25T13:48:31.785Z,21.02
2022-11-25T13:51:18.350Z,20.52
2022-11-25T13:53:54.896Z,20.63
2022-11-25T13:56:30.736Z,20.08
2022-11-25T13:59:34.947Z,20.35
2022-11-25T14:02:41.972Z,19.98
2022-11-25T14:05:54.005Z,18.65
2022-11-25T14:08:36.649Z,19.08
2022-11-25T14:11:35.719Z,19.17
2022-11-25T14:14:50.202Z,18.27
2022-11-25T14:17:39.460Z,17.02
2022-11-25T14:20:34.265Z,17.52
2022-11-25T14:23:45.092Z,15.95
2022-11-25T14:26:47.794Z,15.95
2022-11-25T14:29:19.029Z,15.50
2022-11-25T14:31:52.980Z,15.50
2022-11-25T14:34:25.282Z,15.48
2022-11-25T14:36:57.831Z,15.57
2022-11-25T14:39:33.194Z,15.57
2022-11-25T14:42:08.716Z,15.82
2022-11-25T14:44:48.262Z,15.32
2022-11-25T14:47:24.518Z,15.25
2022-11-25T14:50:18.887Z,14.45
2022-11-25T14:52:47.094Z,13.30
2022-11-25T14:55:25.766Z,13.98
2022-11-25T14:57:54.496Z,13.55
2022-11-25T15:00:25.175Z,13.75
2022-11-25T15:02:56.601Z,14.07
2022-11-25T15:05:27.304Z,13.85
2022-11-25T15:08:03.353Z,13.48
2022-11-25T15:10:44.580Z,11.93
2022-11-25T15:13:31.728Z,12.25
2022-11-25T15:16:11.797Z,10.90
2022-11-25T15:18:44.341Z,11.43
2022-11-25T15:21:15.759Z,11.38
2022-11-25T15:23:44.275Z,11.15
2022-11-25T15:26:22.570Z,10.60
2022-11-25T15:28:56.800Z,10.70
2022-11-25T15:31:31.386Z,10.43
2022-11-25T15:34:03.736Z,10.30
2022-11-25T15:36:32.362Z,8.93
2022-11-25T15:39:17.721Z,10.23
2022-11-25T15:41:48.881Z,9.90
2022-11-25T15:44:24.447Z,9.55
2022-11-25T15:47:01.356Z,9.20
2022-11-25T15:49:30.543Z,9.50
2022-11-25T15:52:04.839Z,9.07
2022-11-25T15:54:39.782Z,9.02
2022-11-25T15:57:19.228Z,8.40
2022-11-25T15:59:51.266Z,8.90
2022-11-25T16:02:58.565Z,9.00
2022-11-25T16:05:36.837Z,9.45
2022-11-25T16:08:36.071Z,8.85
2022-11-25T16:11:19.455Z,8.48
2022-11-25T16:13:49.729Z,8.15
2022-11-25T16:16:30.264Z,8.13
2022-11-25T16:19:12.743Z,8.40
2022-11-25T16:21:59.692Z,8.25
2022-11-25T16:24:42.701Z,8.20
2022-11-25T16:27:23.977Z,7.93
2022-11-25T16:29:58.616Z,7.95
2022-11-25T16:32:30.052Z,8.10
2022-11-25T16:35:14.888Z,7.50
2022-11-25T16:37:48.523Z,7.88
2022-11-25T16:40:19.126Z,7.72
2022-11-25T16:42:50.679Z,7.60
2022-11-25T16:45:23.179Z,8.70
2022-11-25T16:47:51.635Z,7.72
2022-11-25T16:50:22.823Z,8.45
2022-11-25T16:52:51.519Z,7.82
2022-11-25T16:55:19.982Z,7.65
2022-11-25T16:57:48.637Z,7.07
2022-11-25T17:00:18.321Z,7.65
2022-11-25T17:02:47.408Z,7.75
2022-11-25T17:05:20.919Z,7.25
2022-11-25T17:07:50.972Z,7.07
2022-11-25T17:10:21.630Z,6.40
2022-11-25T17:12:50.918Z,7.10
2022-11-25T17:15:24.719Z,7.35
2022-11-25T17:17:53.719Z,7.50
2022-11-25T17:20:27.796Z,7.30
2022-11-25T17:22:58.002Z,7.40
2022-11-25T17:25:33.749Z,7.20
2022-11-25T17:28:05.661Z,7.00
2022-11-25T17:30:34.446Z,6.90
2022-11-25T17:33:06.364Z,6.40
2022-11-25T17:35:36.366Z,6.97
2022-11-25T17:38:14.184Z,6.80
2022-11-25T17:40:44.462Z,6.40
2022-11-25T17:43:18.058Z,6.25
2022-11-25T17:45:48.045Z,5.90
2022-11-25T17:48:18.830Z,7.03
2022-11-25T17:50:48.613Z,6.45
2022-11-25T17:53:16.922Z,7.22
2022-11-25T17:55:45.344Z,6.68
2022-11-25T17:58:15.489Z,6.45
2022-11-25T18:00:44.940Z,7.15
2022-11-25T18:03:15.970Z,6.47
2022-11-25T18:05:45.224Z,6.45
2022-11-25T18:08:14.933Z,6.13
2022-11-25T18:10:46.615Z,5.47
2022-11-25T18:13:15.447Z,5.78
2022-11-25T18:15:44.072Z,5.78
2022-11-25T18:18:22.136Z,6.32
2022-11-25T18:20:50.687Z,5.90
2022-11-25T18:23:20.923Z,6.35
2022-11-25T18:25:49.724Z,6.57
2022-11-25T18:28:21.607Z,6.22
2022-11-25T18:30:51.102Z,6.70
2022-11-25T18:33:20.614Z,6.53
2022-11-25T18:35:49.351Z,6.28
2022-11-25T18:38:19.014Z,5.85
2022-11-25T18:40:51.997Z,5.90
2022-11-25T18:43:25.821Z,6.07
2022-11-25T18:45:55.719Z,5.78
2022-11-25T18:48:26.937Z,5.60
2022-11-25T18:50:57.388Z,6.45
2022-11-25T18:53:27.120Z,5.65
2022-11-25T18:56:00.298Z,5.78
2022-11-25T18:58:29.475Z,5.30
2022-11-25T19:01:05.482Z,5.13
2022-11-25T19:06:24.584Z,5.78
2022-11-25T19:08:54.966Z,5.18
2022-11-25T19:11:31.353Z,5.60
2022-11-25T19:14:04.054Z,5.57
2022-11-25T19:16:32.618Z,5.72
2022-11-25T19:19:00.950Z,5.50
2022-11-25T19:21:30.968Z,5.45
2022-11-25T19:24:00.695Z,5.35
2022-11-25T19:26:34.113Z,5.18
2022-11-25T19:29:07.851Z,5.13
2022-11-25T19:31:36.508Z,4.85
2022-11-25T19:34:05.170Z,5.38
2022-11-25T19:36:35.083Z,5.03
2022-11-25T19:39:13.735Z,5.13
2022-11-25T19:41:42.302Z,5.10
2022-11-25T19:44:10.652Z,5.13
2022-11-25T19:47:13.018Z,4.85
2022-11-25T19:49:34.211Z,5.53
2022-11-25T19:52:02.816Z,5.22
2022-11-25T19:54:32.469Z,4.78
2022-11-25T19:57:00.915Z,6.50
2022-11-25T19:59:29.317Z,6.20
2022-11-25T20:01:58.028Z,5.75
2022-11-25T20:07:18.828Z,16.90
2022-11-25T20:09:51.943Z,15.90
2022-11-25T20:12:24.426Z,34.03
2022-11-25T20:14:53.248Z,43.83
2022-11-25T20:17:30.099Z,162.35
2022-11-25T20:20:00.743Z,88.22
2022-11-25T20:22:32.273Z,169.95
2022-11-25T20:25:03.901Z,136.80
2022-11-25T20:27:34.107Z,123.25
2022-11-25T20:30:03.384Z,126.18
2022-11-25T20:32:34.026Z,82.78
2022-11-25T20:35:02.367Z,52.70
2022-11-25T20:37:40.377Z,40.47
2022-11-25T20:40:17.130Z,39.33
2022-11-25T20:42:45.612Z,38.00
2022-11-25T20:45:17.335Z,36.88
2022-11-25T20:47:49.024Z,35.50
2022-11-25T20:50:18.236Z,34.20
2022-11-25T20:52:47.555Z,33.00
2022-11-25T20:55:23.768Z,31.67
2022-11-25T20:57:52.889Z,106.30
2022-11-25T21:00:25.186Z,74.57
2022-11-25T21:02:57.012Z,68.82
2022-11-25T21:05:27.528Z,70.38
2022-11-25T21:07:56.303Z,58.88
2022-11-25T21:10:30.244Z,56.03
2022-11-25T21:12:58.709Z,54.03
2022-11-25T21:15:29.294Z,53.78
2022-11-25T21:17:58.265Z,51.58
2022-11-25T21:20:27.173Z,51.83
2022-11-25T21:22:59.107Z,48.70
2022-11-25T21:25:29.112Z,48.30
2022-11-25T21:27:57.677Z,47.50
2022-11-25T21:30:30.733Z,41.22
2022-11-25T21:33:01.335Z,40.00
2022-11-25T21:35:33.140Z,39.47
2022-11-25T21:38:04.976Z,38.58
2022-11-25T21:40:40.517Z,38.80
2022-11-25T21:43:21.496Z,37.20
2022-11-25T21:45:53.589Z,35.70
2022-11-25T21:48:27.597Z,35.60
2022-11-25T21:50:56.395Z,35.00
2022-11-25T21:53:25.300Z,33.55
2022-11-25T21:55:55.385Z,33.42
2022-11-25T21:58:28.707Z,32.75
2022-11-25T22:00:59.156Z,31.40
2022-11-25T22:03:30.264Z,28.42
2022-11-25T22:05:58.882Z,22.35
2022-11-25T22:08:27.627Z,17.15
2022-11-25T22:10:57.491Z,14.82
2022-11-25T22:13:33.965Z,14.68
2022-11-25T22:16:02.695Z,13.65
2022-11-25T22:18:34.551Z,13.90
2022-11-25T22:21:03.645Z,12.70
2022-11-25T22:23:32.794Z,11.77
2022-11-25T22:26:05.459Z,12.32
2022-11-25T22:28:35.610Z,11.88
2022-11-25T22:31:11.867Z,11.07
2022-11-25T22:33:40.535Z,10.30
2022-11-25T22:36:20.431Z,10.77
2022-11-25T22:38:48.832Z,10.52
2022-11-25T22:41:19.250Z,10.43
2022-11-25T22:43:52.628Z,9.93
2022-11-25T22:46:21.099Z,9.82
2022-11-25T22:48:49.912Z,9.88
2022-11-25T22:51:28.510Z,11.15
2022-11-25T22:53:56.894Z,11.20
2022-11-25T22:56:28.392Z,10.85
2022-11-25T22:59:00.146Z,11.32
2022-11-25T23:01:28.582Z,11.00
2022-11-25T23:03:56.995Z,8.88
2022-11-25T23:06:26.932Z,10.60
2022-11-25T23:08:55.892Z,9.85
2022-11-25T23:11:24.420Z,9.05
2022-11-25T23:13:54.105Z,9.15
2022-11-25T23:19:31.706Z,8.05
2022-11-25T23:22:00.011Z,7.65
2022-11-25T23:24:28.903Z,7.93
2022-11-25T23:26:57.696Z,7.85
2022-11-25T23:29:27.326Z,8.05
2022-11-25T23:31:55.715Z,7.90
2022-11-25T23:34:23.997Z,7.53
2022-11-25T23:36:52.623Z,7.97
2022-11-25T23:39:23.099Z,7.57
2022-11-25T23:41:51.546Z,6.97
2022-11-25T23:44:26.970Z,7.53
2022-11-25T23:47:01.079Z,6.97
2022-11-25T23:49:34.416Z,6.90
2022-11-25T23:52:07.996Z,7.40
2022-11-25T23:54:40.467Z,6.18
2022-11-25T23:57:15.445Z,6.55
2022-11-25T23:59:45.676Z,7.20
